Time;durP1;ratioP1;P1;durP2;ratioP2;P2;SDS_P1;SDS_P2;PMS_P1;PMS_P2;Temp;Humidity;BMP_temperature;BMP_pressure;BME280_temperature;BME280_humidity;BME280_pressure;Samples;Min_cycle;Max_cycle;Signal;HPM_P1;HPM_P2
2022/04/13 00:01:20;;;;;;;12.75;8.38;;;16.80;59.70;;;;;;5012605;28;20414;-79
2022/04/13 00:03:46;;;;;;;14.75;8.85;;;16.80;59.70;;;;;;4980560;28;20042;-79
2022/04/13 00:06:14;;;;;;;14.20;9.65;;;16.70;59.70;;;;;;5005349;28;20080;-78
2022/04/13 00:08:43;;;;;;;17.73;9.60;;;16.70;59.70;;;;;;5016486;28;20496;-81
2022/04/13 00:11:09;;;;;;;12.02;9.23;;;16.70;59.70;;;;;;5015926;28;20124;-81
2022/04/13 00:13:35;;;;;;;14.75;10.02;;;16.70;59.70;;;;;;5016723;28;20092;-80
2022/04/13 00:16:00;;;;;;;13.82;9.13;;;16.70;59.60;;;;;;5016144;28;20489;-79
2022/04/13 00:18:26;;;;;;;15.20;10.27;;;16.70;59.60;;;;;;4987351;28;20053;-78
2022/04/13 00:20:52;;;;;;;16.17;9.93;;;16.70;59.60;;;;;;4996387;28;20046;-80
2022/04/13 00:23:18;;;;;;;13.18;9.80;;;16.70;59.60;;;;;;4996851;28;20489;-79
2022/04/13 00:25:44;;;;;;;13.75;9.82;;;16.70;59.60;;;;;;4998218;28;20056;-79
2022/04/13 00:28:10;;;;;;;13.30;10.10;;;16.70;59.60;;;;;;5014929;28;20432;-77
2022/04/13 00:30:37;;;;;;;15.55;10.50;;;16.70;59.70;;;;;;5016378;28;20396;-78
2022/04/13 00:33:03;;;;;;;20.35;11.93;;;16.70;59.60;;;;;;5015661;28;20042;-80
2022/04/13 00:35:28;;;;;;;17.58;11.88;;;16.70;59.60;;;;;;4995154;28;20054;-79
2022/04/13 00:37:54;;;;;;;17.63;10.60;;;16.70;59.60;;;;;;4979741;28;20050;-79
2022/04/13 00:40:20;;;;;;;14.68;10.55;;;16.70;59.50;;;;;;4996451;28;20065;-79
2022/04/13 00:42:46;;;;;;;15.80;11.25;;;16.70;60.20;;;;;;4980053;28;20137;-79
2022/04/13 00:45:12;;;;;;;15.73;10.75;;;16.70;59.50;;;;;;4997573;28;20061;-78
2022/04/13 00:47:40;;;;;;;16.25;10.35;;;16.70;59.60;;;;;;5003471;28;20462;-80
2022/04/13 00:50:07;;;;;;;15.23;10.27;;;16.70;59.60;;;;;;4996781;28;20054;-79
2022/04/13 00:52:35;;;;;;;15.65;10.20;;;16.70;59.50;;;;;;4996728;28;20129;-80
2022/04/13 00:55:02;;;;;;;17.33;10.20;;;16.70;59.60;;;;;;4996268;28;20454;-78
2022/04/13 00:57:32;;;;;;;20.17;10.38;;;16.70;59.60;;;;;;4996360;28;20465;-78
2022/04/13 00:59:59;;;;;;;15.82;10.10;;;16.70;59.60;;;;;;4996474;28;20568;-78
2022/04/13 01:02:27;;;;;;;17.60;10.63;;;16.70;59.60;;;;;;4998357;28;20065;-79
2022/04/13 01:04:54;;;;;;;19.55;10.20;;;16.70;59.60;;;;;;5015402;28;20462;-81
2022/04/13 01:07:22;;;;;;;19.52;11.55;;;16.70;60.20;;;;;;4997483;28;20042;-78
2022/04/13 01:09:50;;;;;;;14.85;10.38;;;16.70;59.60;;;;;;5015360;28;20081;-79
2022/04/13 01:12:16;;;;;;;15.18;10.52;;;16.70;59.60;;;;;;4981419;28;20046;-78
2022/04/13 01:14:42;;;;;;;13.93;9.82;;;16.70;59.60;;;;;;4979478;28;20050;-80
2022/04/13 01:17:07;;;;;;;14.98;10.70;;;16.70;59.60;;;;;;4996480;28;20050;-80
2022/04/13 01:19:33;;;;;;;14.20;9.45;;;16.70;59.60;;;;;;4995881;28;20042;-78
2022/04/13 01:22:03;;;;;;;12.95;9.18;;;16.70;59.60;;;;;;5008710;28;20129;-79
2022/04/13 01:24:29;;;;;;;15.32;10.27;;;16.70;59.60;;;;;;4993430;28;20050;-80
2022/04/13 01:26:55;;;;;;;17.00;10.68;;;16.70;59.60;;;;;;4996159;28;20050;-79
2022/04/13 01:29:21;;;;;;;16.55;10.65;;;16.60;59.50;;;;;;4995135;28;20116;-80
2022/04/13 01:31:49;;;;;;;16.85;10.80;;;16.60;59.50;;;;;;5008846;28;20049;-78
2022/04/13 01:34:15;;;;;;;20.75;11.23;;;16.60;59.50;;;;;;5007154;28;20457;-80
2022/04/13 01:36:41;;;;;;;14.48;10.13;;;16.60;59.50;;;;;;4995783;28;20074;-79
2022/04/13 01:39:08;;;;;;;15.73;10.40;;;16.60;59.60;;;;;;4996010;28;20129;-81
2022/04/13 01:41:34;;;;;;;15.57;10.63;;;16.60;59.60;;;;;;5005312;28;20408;-81
2022/04/13 01:44:00;;;;;;;13.60;9.65;;;16.60;59.60;;;;;;4984715;28;20134;-79
2022/04/13 01:46:25;;;;;;;14.45;9.85;;;16.60;59.60;;;;;;4995405;28;20045;-80
2022/04/13 01:48:51;;;;;;;15.98;9.32;;;16.60;59.70;;;;;;5007527;28;20111;-80
2022/04/13 01:51:20;;;;;;;13.07;9.70;;;16.50;59.80;;;;;;5014607;28;20042;-79
2022/04/13 01:53:50;;;;;;;12.77;8.43;;;16.50;59.70;;;;;;5014339;28;20076;-79
2022/04/13 01:56:16;;;;;;;14.73;8.98;;;16.50;59.80;;;;;;5014994;28;20353;-78
2022/04/13 01:58:41;;;;;;;15.38;9.63;;;16.50;59.90;;;;;;5014525;28;20056;-80
2022/04/13 02:01:07;;;;;;;14.52;8.52;;;16.50;59.90;;;;;;5003404;28;20063;-78
2022/04/13 02:03:33;;;;;;;13.52;8.52;;;16.50;59.90;;;;;;5014417;28;20057;-79
2022/04/13 02:05:59;;;;;;;13.05;8.77;;;16.50;60.00;;;;;;5014732;28;20092;-80
2022/04/13 02:08:26;;;;;;;11.25;8.13;;;16.40;60.00;;;;;;5014147;28;20347;-78
2022/04/13 02:10:52;;;;;;;13.45;8.82;;;16.50;60.10;;;;;;5013048;28;20050;-79
2022/04/13 02:13:22;;;;;;;11.93;8.35;;;16.40;60.20;;;;;;5014134;28;20331;-78
2022/04/13 02:15:48;;;;;;;13.30;7.93;;;16.50;60.30;;;;;;4978933;28;20042;-78
2022/04/13 02:18:14;;;;;;;11.90;8.18;;;16.50;60.40;;;;;;4995265;28;20046;-78
2022/04/13 02:20:40;;;;;;;10.98;7.82;;;16.40;60.40;;;;;;4986411;28;20434;-78
2022/04/13 02:23:06;;;;;;;11.40;7.30;;;16.40;60.50;;;;;;5010392;28;20108;-79
2022/04/13 02:25:35;;;;;;;12.07;7.75;;;16.40;60.60;;;;;;4995366;28;20105;-82
2022/04/13 02:28:05;;;;;;;12.60;7.32;;;16.40;60.60;;;;;;4995453;28;20104;-80
2022/04/13 02:30:31;;;;;;;11.73;7.05;;;16.40;60.70;;;;;;4993410;28;20177;-79
2022/04/13 02:32:57;;;;;;;11.07;7.10;;;16.40;60.70;;;;;;5013750;28;20042;-77
2022/04/13 02:35:23;;;;;;;11.70;6.78;;;16.40;60.80;;;;;;5014319;28;20067;-80
2022/04/13 02:37:49;;;;;;;13.75;7.65;;;16.40;60.90;;;;;;5013981;28;20540;-80
2022/04/13 02:40:16;;;;;;;14.93;6.75;;;16.40;60.90;;;;;;5009679;28;20038;-80
2022/04/13 02:42:42;;;;;;;12.60;7.22;;;16.40;60.90;;;;;;4995020;28;20066;-79
2022/04/13 02:45:08;;;;;;;12.93;7.25;;;16.40;61.60;;;;;;4998552;28;20042;-79
2022/04/13 02:47:35;;;;;;;9.02;6.57;;;16.40;61.00;;;;;;4998996;28;20042;-79
2022/04/13 02:50:02;;;;;;;12.02;6.88;;;16.40;61.10;;;;;;5006344;28;20447;-77
2022/04/13 02:52:28;;;;;;;8.55;6.53;;;16.40;61.10;;;;;;4998689;28;20050;-78
2022/04/13 02:54:57;;;;;;;13.02;6.75;;;16.40;61.20;;;;;;4998949;28;20062;-80
2022/04/13 02:57:23;;;;;;;10.98;7.07;;;16.40;61.30;;;;;;4981809;28;20043;-79
2022/04/13 02:59:49;;;;;;;9.80;6.65;;;16.40;61.40;;;;;;5006887;28;20052;-80
2022/04/13 03:02:19;;;;;;;10.18;6.70;;;16.40;61.40;;;;;;5017764;28;20107;-79
2022/04/13 03:04:46;;;;;;;12.07;7.03;;;16.40;61.50;;;;;;5017526;28;20037;-79
2022/04/13 03:07:13;;;;;;;11.25;6.85;;;16.40;61.60;;;;;;5017748;28;20057;-77
2022/04/13 03:09:39;;;;;;;9.95;6.55;;;16.40;61.60;;;;;;4984275;28;20060;-79
2022/04/13 03:12:06;;;;;;;10.52;5.97;;;16.40;61.60;;;;;;4997045;28;20053;-78
2022/04/13 03:14:32;;;;;;;12.38;6.55;;;16.40;61.60;;;;;;4998226;28;20046;-81
2022/04/13 03:16:58;;;;;;;10.77;6.60;;;16.40;61.70;;;;;;5006056;28;20053;-78
2022/04/13 03:19:24;;;;;;;11.95;7.28;;;16.40;61.70;;;;;;5010681;28;20038;-78
2022/04/13 03:21:51;;;;;;;13.38;6.68;;;16.40;61.70;;;;;;5017047;28;20053;-81
2022/04/13 03:24:18;;;;;;;10.50;6.47;;;16.40;61.80;;;;;;4988911;28;20112;-79
2022/04/13 03:26:43;;;;;;;12.43;7.03;;;16.40;61.80;;;;;;4998016;28;20077;-79
2022/04/13 03:29:09;;;;;;;10.27;6.40;;;16.40;61.80;;;;;;4982755;28;20081;-80
2022/04/13 03:31:35;;;;;;;9.60;6.45;;;16.40;61.90;;;;;;5017365;28;20464;-80
2022/04/13 03:34:01;;;;;;;12.10;7.10;;;16.40;62.00;;;;;;5016743;28;20038;-78
2022/04/13 03:36:27;;;;;;;13.27;7.95;;;16.40;62.10;;;;;;5004726;28;20443;-79
2022/04/13 03:38:53;;;;;;;12.88;7.53;;;16.30;62.00;;;;;;5013476;28;20042;-80
2022/04/13 03:41:18;;;;;;;12.52;7.28;;;16.40;62.10;;;;;;4988896;28;20042;-78
2022/04/13 03:43:44;;;;;;;11.35;7.90;;;16.30;62.10;;;;;;4997446;28;20370;-78
2022/04/13 03:46:10;;;;;;;16.63;8.02;;;16.30;62.10;;;;;;5005512;28;20050;-79
2022/04/13 03:48:35;;;;;;;11.52;7.78;;;16.30;62.10;;;;;;4990987;28;20046;-79
2022/04/13 03:51:01;;;;;;;12.63;8.15;;;16.30;62.20;;;;;;4980098;28;20054;-78
2022/04/13 03:53:28;;;;;;;11.38;8.27;;;16.30;62.20;;;;;;4997873;28;20053;-80
2022/04/13 03:55:54;;;;;;;9.65;7.30;;;16.30;62.20;;;;;;4978521;28;20046;-81
2022/04/13 03:58:20;;;;;;;13.32;9.35;;;16.30;62.20;;;;;;4997157;28;20053;-78
2022/04/13 04:00:45;;;;;;;11.57;8.00;;;16.30;62.20;;;;;;4980271;28;20054;-79
2022/04/13 04:03:11;;;;;;;13.10;8.95;;;16.30;62.20;;;;;;5011725;28;20089;-77
2022/04/13 04:05:38;;;;;;;13.45;7.88;;;16.30;62.20;;;;;;4997416;28;20050;-79
2022/04/13 04:08:04;;;;;;;8.90;7.75;;;16.30;62.20;;;;;;4993426;28;20046;-79
2022/04/13 04:10:30;;;;;;;13.45;8.82;;;16.30;62.30;;;;;;4997208;28;20090;-80
2022/04/13 04:12:55;;;;;;;14.93;9.05;;;16.30;62.40;;;;;;4997564;28;20092;-78
2022/04/13 04:15:21;;;;;;;13.40;8.80;;;16.20;62.40;;;;;;4996962;28;20056;-80
2022/04/13 04:17:47;;;;;;;15.52;9.57;;;16.20;62.50;;;;;;4997457;28;20043;-78
2022/04/13 04:20:13;;;;;;;15.65;9.50;;;16.20;62.50;;;;;;4998052;28;20492;-80
2022/04/13 04:22:39;;;;;;;13.30;8.95;;;16.20;62.60;;;;;;5016426;28;20119;-81
2022/04/13 04:25:07;;;;;;;13.23;9.32;;;16.20;62.70;;;;;;4983522;28;20054;-80
2022/04/13 04:27:33;;;;;;;12.40;9.07;;;16.20;62.80;;;;;;4988048;28;20465;-80
2022/04/13 04:29:59;;;;;;;12.65;8.73;;;16.20;62.80;;;;;;5012015;28;20034;-78
2022/04/13 04:32:25;;;;;;;13.50;8.43;;;16.20;62.80;;;;;;4997050;28;20089;-78
2022/04/13 04:34:51;;;;;;;14.23;9.38;;;16.20;62.90;;;;;;4997276;28;20442;-78
2022/04/13 04:37:17;;;;;;;16.10;9.00;;;16.20;63.00;;;;;;4997492;28;20078;-78
2022/04/13 04:39:42;;;;;;;15.75;9.68;;;16.20;63.10;;;;;;5014906;28;20500;-78
2022/04/13 04:42:08;;;;;;;15.48;9.45;;;16.20;63.10;;;;;;5000767;28;20043;-80
2022/04/13 04:44:34;;;;;;;15.10;8.65;;;16.20;63.10;;;;;;4996859;28;20132;-79
2022/04/13 04:47:00;;;;;;;14.90;10.02;;;16.20;63.20;;;;;;4996899;28;20508;-78
2022/04/13 04:49:25;;;;;;;17.08;9.43;;;16.20;63.30;;;;;;4996758;28;20049;-81
2022/04/13 04:51:51;;;;;;;16.80;9.68;;;16.10;63.40;;;;;;4996570;28;20046;-81
2022/04/13 04:54:16;;;;;;;15.93;10.32;;;16.10;63.50;;;;;;4996672;28;20038;-79
2022/04/13 04:56:42;;;;;;;15.18;9.57;;;16.10;63.60;;;;;;4997115;28;20446;-78
2022/04/13 04:59:08;;;;;;;17.63;10.35;;;16.10;63.70;;;;;;4996468;28;20054;-78
2022/04/13 05:01:34;;;;;;;14.73;10.43;;;16.10;63.80;;;;;;5013711;28;20112;-78
2022/04/13 05:03:59;;;;;;;16.52;11.27;;;16.10;63.90;;;;;;5015531;28;20045;-80
2022/04/13 05:06:29;;;;;;;16.92;10.43;;;16.10;64.00;;;;;;5013988;28;20063;-78
2022/04/13 05:08:56;;;;;;;14.95;10.13;;;16.00;64.00;;;;;;4989111;28;20381;-80
2022/04/13 05:11:22;;;;;;;14.55;10.20;;;16.00;64.20;;;;;;4995733;28;20042;-78
2022/04/13 05:13:48;;;;;;;19.02;10.93;;;16.00;64.20;;;;;;5000322;28;20060;-79
2022/04/13 05:16:16;;;;;;;20.35;11.60;;;16.00;64.30;;;;;;5007992;28;20080;-75
2022/04/13 05:18:43;;;;;;;18.77;11.52;;;16.00;64.60;;;;;;4998736;28;20504;-76
2022/04/13 05:21:09;;;;;;;16.88;10.05;;;16.10;65.00;;;;;;5015501;28;20050;-73
2022/04/13 05:23:36;;;;;;;25.95;12.55;;;16.00;65.00;;;;;;5012001;28;20532;-76
2022/04/13 05:26:02;;;;;;;15.82;10.63;;;16.10;66.70;;;;;;5015449;28;20440;-74
2022/04/13 05:28:29;;;;;;;16.02;9.85;;;16.10;67.50;;;;;;5013548;28;20100;-73
2022/04/13 05:30:55;;;;;;;16.88;8.52;;;16.20;67.00;;;;;;4995839;28;20046;-73
2022/04/13 05:33:21;;;;;;;16.23;7.45;;;16.30;66.40;;;;;;4995946;28;20042;-73
2022/04/13 05:35:46;;;;;;;13.20;6.72;;;16.50;66.20;;;;;;4994311;28;20113;-76
2022/04/13 05:38:12;;;;;;;18.02;7.32;;;16.60;65.70;;;;;;4995737;28;20034;-75
2022/04/13 05:40:38;;;;;;;11.15;5.47;;;16.80;65.80;;;;;;4995491;28;20054;-75
2022/04/13 05:43:04;;;;;;;13.88;5.20;;;16.90;65.60;;;;;;4995636;28;20529;-73
2022/04/13 05:45:30;;;;;;;12.23;5.15;;;17.00;65.50;;;;;;4996430;28;20046;-74
2022/04/13 05:47:56;;;;;;;8.13;4.63;;;17.10;65.40;;;;;;4991980;28;20098;-73
2022/04/13 05:50:23;;;;;;;13.15;5.22;;;17.20;65.60;;;;;;4995173;28;20415;-73
2022/04/13 05:52:48;;;;;;;8.20;4.30;;;17.30;65.70;;;;;;4993740;28;20046;-73
2022/04/13 05:55:14;;;;;;;7.22;4.32;;;17.30;65.80;;;;;;4994901;28;20116;-73
2022/04/13 05:57:41;;;;;;;9.07;4.90;;;17.40;66.00;;;;;;4995265;28;20050;-73
2022/04/13 06:00:10;;;;;;;11.82;4.45;;;17.40;66.00;;;;;;4995528;28;20050;-75
2022/04/13 06:02:36;;;;;;;8.98;4.13;;;17.40;65.80;;;;;;4984137;28;20385;-73
2022/04/13 06:05:03;;;;;;;9.35;3.65;;;17.40;65.90;;;;;;4995200;28;20465;-73
2022/04/13 06:07:29;;;;;;;16.38;6.40;;;17.50;66.00;;;;;;4999806;28;20477;-73
2022/04/13 06:09:54;;;;;;;12.75;7.00;;;17.50;66.10;;;;;;4986366;28;20144;-72
2022/04/13 06:12:23;;;;;;;14.98;5.57;;;17.40;65.20;;;;;;5005417;28;20120;-73
2022/04/13 06:14:49;;;;;;;11.00;4.03;;;17.40;65.10;;;;;;5007403;28;20100;-73
2022/04/13 06:17:16;;;;;;;17.00;4.50;;;17.40;65.50;;;;;;5013790;28;20080;-73
2022/04/13 06:19:42;;;;;;;13.35;3.90;;;17.40;65.60;;;;;;4985591;28;20050;-73
2022/04/13 06:22:08;;;;;;;7.35;3.63;;;17.30;65.50;;;;;;5000882;28;20088;-73
2022/04/13 06:24:34;;;;;;;10.52;3.97;;;17.40;65.50;;;;;;5001149;28;20038;-75
2022/04/13 06:27:00;;;;;;;8.73;3.65;;;17.40;65.40;;;;;;5012059;28;20117;-74
2022/04/13 06:29:26;;;;;;;11.80;3.85;;;17.30;65.20;;;;;;5006277;28;20111;-73
2022/04/13 06:31:51;;;;;;;8.48;3.75;;;17.40;65.20;;;;;;5001301;28;20093;-73
2022/04/13 06:34:17;;;;;;;8.32;3.63;;;17.30;65.00;;;;;;5001722;28;20129;-74
2022/04/13 06:36:43;;;;;;;9.25;3.75;;;17.40;64.90;;;;;;5012661;28;20112;-73
2022/04/13 06:39:09;;;;;;;10.50;5.32;;;17.40;64.90;;;;;;5016593;28;20046;-73
2022/04/13 06:41:35;;;;;;;9.73;5.53;;;17.30;64.80;;;;;;4982875;28;20111;-73
2022/04/13 06:44:01;;;;;;;13.57;5.60;;;17.30;64.60;;;;;;4999379;28;20042;-72
2022/04/13 06:46:27;;;;;;;10.45;4.47;;;17.20;64.70;;;;;;5015461;28;20366;-72
2022/04/13 06:48:52;;;;;;;11.05;4.97;;;17.20;65.00;;;;;;4997558;28;20462;-72
2022/04/13 06:51:18;;;;;;;11.70;5.78;;;17.20;65.00;;;;;;5015863;28;20042;-71
2022/04/13 06:53:44;;;;;;;16.55;5.07;;;17.10;64.90;;;;;;5016586;28;20042;-74
2022/04/13 06:56:10;;;;;;;13.32;4.80;;;17.10;64.90;;;;;;5016477;28;20046;-72
2022/04/13 06:58:35;;;;;;;9.65;4.75;;;17.10;65.20;;;;;;5014467;28;20046;-73
2022/04/13 07:01:01;;;;;;;12.25;4.93;;;17.00;65.50;;;;;;5015471;28;20140;-74
2022/04/13 07:03:27;;;;;;;10.77;3.92;;;17.10;65.70;;;;;;5017603;28;20049;-72
2022/04/13 07:05:52;;;;;;;10.48;5.00;;;17.10;66.00;;;;;;4999581;28;20053;-72
2022/04/13 07:08:18;;;;;;;9.70;5.03;;;17.00;66.60;;;;;;5019356;28;20062;-71
2022/04/13 07:10:44;;;;;;;12.02;5.60;;;17.00;66.60;;;;;;5002848;28;20062;-72
2022/04/13 07:13:14;;;;;;;8.32;4.78;;;17.10;66.70;;;;;;5000718;28;20082;-72
2022/04/13 07:15:40;;;;;;;8.93;4.63;;;17.10;66.80;;;;;;5001440;28;20050;-71
2022/04/13 07:18:06;;;;;;;11.55;4.43;;;17.00;66.80;;;;;;5017062;28;20076;-71
2022/04/13 07:20:31;;;;;;;10.35;4.85;;;17.00;66.70;;;;;;4994590;28;20057;-71
2022/04/13 07:22:57;;;;;;;11.77;4.97;;;17.00;66.50;;;;;;5006712;28;20045;-72
2022/04/13 07:25:24;;;;;;;7.40;4.60;;;17.00;66.50;;;;;;5001416;28;20430;-71
2022/04/13 07:27:51;;;;;;;7.80;4.05;;;17.10;66.60;;;;;;5008421;28;20050;-71
2022/04/13 07:30:17;;;;;;;8.45;4.03;;;17.00;66.60;;;;;;5018686;28;20038;-72
2022/04/13 07:32:45;;;;;;;7.88;3.33;;;17.00;66.50;;;;;;5017395;28;20060;-71
2022/04/13 07:35:10;;;;;;;9.02;4.00;;;17.10;66.40;;;;;;4981964;28;20355;-69
2022/04/13 07:37:39;;;;;;;9.35;3.35;;;17.10;66.50;;;;;;4997652;28;20057;-73
2022/04/13 07:40:11;;;;;;;5.63;2.80;;;17.10;66.60;;;;;;4997652;28;20450;-72
2022/04/13 07:42:37;;;;;;;9.40;4.18;;;17.10;66.30;;;;;;5000176;28;20125;-73
2022/04/13 07:45:08;;;;;;;14.65;4.13;;;17.20;66.80;;;;;;5001902;28;20050;-74
2022/04/13 07:47:34;;;;;;;11.07;3.65;;;17.20;67.00;;;;;;4998080;28;20120;-72
2022/04/13 07:50:00;;;;;;;8.15;3.05;;;17.30;67.40;;;;;;4997750;28;20108;-76
2022/04/13 07:52:26;;;;;;;8.75;3.22;;;17.30;67.20;;;;;;4997633;28;20057;-70
2022/04/13 07:54:52;;;;;;;8.75;3.35;;;17.30;67.40;;;;;;4997581;28;20050;-75
2022/04/13 07:57:18;;;;;;;13.38;3.72;;;17.30;67.50;;;;;;4988824;28;20065;-76
2022/04/13 07:59:43;;;;;;;8.50;3.60;;;17.30;67.80;;;;;;4997625;28;20133;-74
2022/04/13 08:02:09;;;;;;;11.35;3.85;;;17.40;68.00;;;;;;5005081;28;20054;-75
2022/04/13 08:04:36;;;;;;;9.38;3.63;;;17.40;68.20;;;;;;4998056;28;20062;-72
2022/04/13 08:07:01;;;;;;;8.60;3.72;;;17.40;68.60;;;;;;4997580;28;20085;-72
2022/04/13 08:09:27;;;;;;;7.72;3.63;;;17.40;68.70;;;;;;4997367;28;20086;-75
2022/04/13 08:11:53;;;;;;;13.13;4.07;;;17.50;69.20;;;;;;4997542;28;20053;-74
2022/04/13 08:14:20;;;;;;;15.95;3.30;;;17.50;69.20;;;;;;5002757;28;20053;-76
2022/04/13 08:16:46;;;;;;;11.32;3.38;;;17.50;69.20;;;;;;4997512;28;20038;-75
2022/04/13 08:19:11;;;;;;;14.25;3.45;;;17.50;68.90;;;;;;4997246;28;20060;-73
2022/04/13 08:21:40;;;;;;;8.38;3.60;;;17.50;68.60;;;;;;5008556;28;20065;-74
2022/04/13 08:24:06;;;;;;;11.65;3.50;;;17.50;68.80;;;;;;5016362;28;20418;-74
2022/04/13 08:26:32;;;;;;;12.88;3.95;;;17.50;68.70;;;;;;4979642;28;20057;-75
2022/04/13 08:28:58;;;;;;;11.40;3.47;;;17.60;68.90;;;;;;5008519;28;20041;-75
2022/04/13 08:31:24;;;;;;;10.82;3.05;;;17.60;69.00;;;;;;5001404;28;20057;-75
2022/04/13 08:33:50;;;;;;;12.48;3.42;;;17.60;68.90;;;;;;5004259;28;20464;-74
2022/04/13 08:36:17;;;;;;;11.90;3.17;;;17.60;69.00;;;;;;4993350;28;20084;-78
2022/04/13 08:38:42;;;;;;;8.73;3.08;;;17.60;68.80;;;;;;5011594;28;20054;-73
2022/04/13 08:41:16;;;;;;;9.15;3.22;;;17.60;69.20;;;;;;5007208;28;20042;-72
2022/04/13 08:43:54;;;;;;;9.95;3.53;;;17.60;69.50;;;;;;5005460;28;20075;-76
2022/04/13 08:46:27;;;;;;;21.60;3.42;;;17.60;70.10;;;;;;5010825;28;20077;-73
2022/04/13 08:48:56;;;;;;;8.87;2.93;;;17.70;69.70;;;;;;5012117;28;20045;-74
2022/04/13 08:51:24;;;;;;;9.05;2.78;;;17.70;69.50;;;;;;5011196;28;20052;-75
2022/04/13 08:54:20;;;;;;;9.90;3.40;;;17.70;69.60;;;;;;5011351;28;20546;-73
2022/04/13 08:56:49;;;;;;;9.05;2.45;;;17.70;69.40;;;;;;5008426;28;20054;-73
2022/04/13 08:59:40;;;;;;;8.27;2.78;;;17.70;69.40;;;;;;5009405;28;20125;-73
2022/04/13 09:02:21;;;;;;;9.60;2.65;;;17.70;69.20;;;;;;4993045;28;20064;-74
2022/04/13 09:04:48;;;;;;;10.35;2.67;;;17.70;69.10;;;;;;5010141;28;20457;-73
2022/04/13 09:07:17;;;;;;;5.97;2.67;;;17.70;69.00;;;;;;4994635;28;20141;-74
2022/04/13 09:09:49;;;;;;;8.38;2.70;;;17.70;68.90;;;;;;5010184;28;20116;-73
2022/04/13 09:12:18;;;;;;;5.45;2.38;;;17.70;68.80;;;;;;4994423;28;20045;-74
2022/04/13 09:14:45;;;;;;;6.85;2.65;;;17.70;68.70;;;;;;5004441;28;20073;-74
2022/04/13 09:17:11;;;;;;;9.27;2.17;;;17.70;68.60;;;;;;5011588;28;20099;-75
2022/04/13 09:19:37;;;;;;;5.60;2.25;;;17.80;68.60;;;;;;4995049;28;20042;-74
2022/04/13 09:22:05;;;;;;;5.78;2.33;;;17.80;68.60;;;;;;5013006;28;20046;-75
2022/04/13 09:24:32;;;;;;;6.35;2.40;;;17.80;68.50;;;;;;5012280;28;20170;-75
2022/04/13 09:26:59;;;;;;;6.85;2.72;;;17.80;68.40;;;;;;5007626;28;20129;-74
2022/04/13 09:29:25;;;;;;;5.40;2.08;;;17.80;68.40;;;;;;5013473;28;20061;-74
2022/04/13 09:31:51;;;;;;;3.97;2.15;;;17.80;68.40;;;;;;5012676;28;20050;-73
2022/04/13 09:34:17;;;;;;;15.35;2.35;;;17.80;68.30;;;;;;5009319;28;20121;-74
2022/04/13 09:36:44;;;;;;;6.30;2.10;;;17.80;68.20;;;;;;5010507;28;20121;-74
2022/04/13 09:39:10;;;;;;;6.13;2.05;;;17.80;68.10;;;;;;5013745;28;20132;-73
2022/04/13 09:41:38;;;;;;;5.57;1.88;;;17.80;68.10;;;;;;4994520;28;20084;-73
2022/04/13 09:44:22;;;;;;;6.28;1.75;;;17.80;68.00;;;;;;5014246;28;20033;-74
2022/04/13 09:46:47;;;;;;;3.80;1.95;;;17.90;68.00;;;;;;5014363;28;20053;-75
2022/04/13 09:49:19;;;;;;;6.38;2.35;;;17.80;67.80;;;;;;5009133;28;20038;-73
2022/04/13 09:51:49;;;;;;;5.68;2.25;;;17.80;67.70;;;;;;4998682;28;20060;-76
2022/04/13 09:54:16;;;;;;;3.38;2.20;;;17.80;67.60;;;;;;4998899;28;20050;-74
2022/04/13 09:56:49;;;;;;;7.43;2.30;;;17.90;67.60;;;;;;5005048;28;20479;-75
2022/04/13 09:59:29;;;;;;;5.05;2.13;;;17.90;67.30;;;;;;4998869;28;20066;-78
2022/04/13 10:01:56;;;;;;;5.32;1.95;;;17.90;67.10;;;;;;5009499;28;20389;-78
2022/04/13 10:04:29;;;;;;;9.88;3.67;;;17.90;66.90;;;;;;5000447;28;20096;-73
2022/04/13 10:06:55;;;;;;;20.08;5.57;;;17.90;67.00;;;;;;5010516;28;20038;-74
2022/04/13 10:09:22;;;;;;;27.60;8.40;;;17.80;66.90;;;;;;4995491;28;20042;-75
2022/04/13 10:12:03;;;;;;;19.20;6.60;;;17.80;67.30;;;;;;5011452;28;20053;-72
2022/04/13 10:14:30;;;;;;;18.27;7.82;;;17.80;67.20;;;;;;4995632;28;20072;-72
2022/04/13 10:17:06;;;;;;;14.93;7.63;;;17.80;68.10;;;;;;4996332;28;20384;-72
2022/04/13 10:19:31;;;;;;;17.85;6.60;;;17.80;67.60;;;;;;4997645;28;20077;-72
2022/04/13 10:21:59;;;;;;;14.88;6.32;;;17.80;67.30;;;;;;5006670;28;20147;-73
2022/04/13 10:24:26;;;;;;;10.00;5.65;;;17.70;67.20;;;;;;5000654;28;20102;-72
2022/04/13 10:27:01;;;;;;;13.27;5.97;;;17.70;67.00;;;;;;5010602;28;20112;-73
2022/04/13 10:29:27;;;;;;;14.60;6.55;;;17.70;67.70;;;;;;5007989;28;20053;-74
2022/04/13 10:32:11;;;;;;;11.13;5.78;;;17.70;67.20;;;;;;5011884;28;20129;-72
2022/04/13 10:34:47;;;;;;;14.30;6.45;;;17.70;67.20;;;;;;5014461;28;20046;-73
2022/04/13 10:37:16;;;;;;;11.93;5.82;;;17.70;66.70;;;;;;4995227;28;20050;-74
2022/04/13 10:39:45;;;;;;;12.68;6.82;;;17.70;66.80;;;;;;4993136;28;20041;-74
2022/04/13 10:42:12;;;;;;;13.73;6.80;;;17.70;67.70;;;;;;5007351;28;20462;-73
2022/04/13 10:44:42;;;;;;;14.25;5.80;;;17.70;67.80;;;;;;4995348;28;20480;-73
2022/04/13 10:47:10;;;;;;;9.95;5.68;;;17.70;67.80;;;;;;4977962;28;20441;-74
2022/04/13 10:49:47;;;;;;;15.38;6.43;;;17.70;68.00;;;;;;4994992;28;20046;-76
2022/04/13 10:52:23;;;;;;;13.75;6.53;;;17.80;68.60;;;;;;5014005;28;20041;-73
2022/04/13 10:54:58;;;;;;;10.93;5.47;;;17.80;69.00;;;;;;5014343;28;20433;-75
2022/04/13 10:57:28;;;;;;;13.93;5.78;;;17.80;69.20;;;;;;4977974;28;20050;-73
2022/04/13 10:59:56;;;;;;;13.80;5.78;;;17.80;69.50;;;;;;5002810;28;20050;-74
2022/04/13 11:02:48;;;;;;;15.13;5.38;;;17.80;69.40;;;;;;4984731;28;20489;-74
2022/04/13 11:05:14;;;;;;;14.02;5.28;;;17.80;69.10;;;;;;4969094;28;20053;-74
2022/04/13 11:07:41;;;;;;;12.77;5.38;;;17.80;69.00;;;;;;5001509;28;20061;-74
2022/04/13 11:10:20;;;;;;;10.30;4.82;;;17.80;68.80;;;;;;4998116;28;20553;-75
2022/04/13 11:12:47;;;;;;;14.63;5.00;;;17.80;68.60;;;;;;4998919;28;20050;-78
2022/04/13 11:15:13;;;;;;;12.57;5.10;;;17.80;68.60;;;;;;5010214;28;20444;-74
2022/04/13 11:17:42;;;;;;;10.38;4.70;;;17.80;68.60;;;;;;5008987;28;20038;-75
2022/04/13 11:20:18;;;;;;;11.30;4.60;;;17.90;68.50;;;;;;4999938;28;20104;-74
2022/04/13 11:22:44;;;;;;;15.80;4.85;;;17.90;68.30;;;;;;5011814;28;20057;-75
2022/04/13 11:25:11;;;;;;;12.73;4.72;;;17.90;68.20;;;;;;5011227;28;20054;-76
2022/04/13 11:27:53;;;;;;;20.33;4.85;;;17.90;68.00;;;;;;5010483;28;20429;-77
2022/04/13 11:30:19;;;;;;;12.82;4.97;;;17.90;68.20;;;;;;5008372;28;20053;-75
2022/04/13 11:32:46;;;;;;;11.38;4.18;;;17.90;68.00;;;;;;5017337;28;20174;-76
2022/04/13 11:35:27;;;;;;;9.90;4.07;;;17.90;68.00;;;;;;5017140;28;20057;-72
2022/04/13 11:38:06;;;;;;;23.67;5.50;;;17.90;67.90;;;;;;5010831;28;20389;-73
2022/04/13 11:40:32;;;;;;;14.40;4.70;;;17.90;68.00;;;;;;5019910;28;20050;-74
2022/04/13 11:43:02;;;;;;;11.00;4.72;;;17.90;68.30;;;;;;5012311;28;20070;-74
2022/04/13 11:45:28;;;;;;;14.88;4.47;;;17.90;68.30;;;;;;5009702;28;20421;-74
2022/04/13 11:47:59;;;;;;;16.00;4.65;;;17.90;68.40;;;;;;5007751;28;20133;-74
2022/04/13 11:50:32;;;;;;;10.00;3.70;;;18.00;68.40;;;;;;4997759;28;20493;-73
2022/04/13 11:53:05;;;;;;;16.77;4.13;;;17.90;68.20;;;;;;5011881;28;20054;-73
2022/04/13 11:55:40;;;;;;;9.30;4.35;;;17.90;68.10;;;;;;4998963;28;20121;-72
2022/04/13 11:58:08;;;;;;;9.45;3.72;;;18.00;68.00;;;;;;4997722;28;20461;-76
2022/04/13 12:00:56;;;;;;;6.93;3.80;;;17.90;68.00;;;;;;4997763;28;20129;-73
2022/04/13 12:03:37;;;;;;;8.52;3.72;;;18.00;68.00;;;;;;5015521;28;20378;-74
2022/04/13 12:06:11;;;;;;;11.48;4.00;;;17.90;67.90;;;;;;5016540;28;20461;-74
2022/04/13 12:08:39;;;;;;;10.07;3.22;;;17.90;67.80;;;;;;4971424;28;20073;-74
2022/04/13 12:11:14;;;;;;;7.30;3.20;;;17.90;67.60;;;;;;4997503;28;20046;-74
2022/04/13 12:13:57;;;;;;;12.95;3.53;;;17.90;67.40;;;;;;4988998;28;20081;-75
2022/04/13 12:16:27;;;;;;;8.52;3.45;;;17.90;67.20;;;;;;4996243;28;20042;-75
2022/04/13 12:18:55;;;;;;;8.10;3.72;;;17.90;67.30;;;;;;4997113;28;20042;-75
2022/04/13 12:21:24;;;;;;;9.98;3.70;;;17.90;67.10;;;;;;5005761;28;20053;-74
2022/04/13 12:23:51;;;;;;;7.00;2.75;;;17.90;67.10;;;;;;5016271;28;20049;-74
2022/04/13 12:26:28;;;;;;;9.65;3.30;;;17.90;67.10;;;;;;4982710;28;20061;-75
2022/04/13 12:28:53;;;;;;;10.35;3.22;;;17.90;67.00;;;;;;4996871;28;20042;-73
2022/04/13 12:31:19;;;;;;;10.70;3.47;;;17.90;67.00;;;;;;4997112;28;20042;-74
2022/04/13 12:33:45;;;;;;;7.43;3.33;;;17.90;66.90;;;;;;5006319;28;20444;-74
2022/04/13 12:36:13;;;;;;;7.95;3.00;;;17.90;66.90;;;;;;4995432;28;20442;-75
2022/04/13 12:38:54;;;;;;;9.45;3.88;;;17.90;66.90;;;;;;4996556;28;20462;-73
2022/04/13 12:41:22;;;;;;;8.15;3.88;;;17.90;67.10;;;;;;5012342;28;20081;-74